Time;durP1;ratioP1;P1;durP2;ratioP2;P2;SDS_P1;SDS_P2;PMS_P1;PMS_P2;Temp;Humidity;BMP_temperature;BMP_pressure;BME280_temperature;BME280_humidity;BME280_pressure;Samples;Min_cycle;Max_cycle;Signal;HPM_P1;HPM_P2
2023/01/10 00:00:34;;;;;;;17.55;10.32;;;;;;;5.99;100.00;99724.25;4971247;28;20034;-90
2023/01/10 00:03:12;;;;;;;14.85;9.60;;;;;;;5.95;100.00;99725.53;4989123;28;20054;-85
2023/01/10 00:05:41;;;;;;;18.13;9.70;;;;;;;6.08;100.00;99733.84;4968242;28;20085;-89
2023/01/10 00:08:14;;;;;;;17.55;9.70;;;;;;;6.16;100.00;99741.81;4998376;23;20043;-85
2023/01/10 00:10:43;;;;;;;18.45;10.02;;;;;;;6.10;100.00;99734.50;4987907;28;20034;-89
2023/01/10 00:13:23;;;;;;;16.80;9.55;;;;;;;6.14;100.00;99739.31;4972727;28;20036;-87
2023/01/10 00:15:55;;;;;;;19.58;9.50;;;;;;;6.07;100.00;99742.69;4970651;28;20081;-87
2023/01/10 00:18:22;;;;;;;15.32;9.00;;;;;;;6.04;100.00;99743.00;4987633;28;20091;-86
2023/01/10 00:20:48;;;;;;;19.02;9.68;;;;;;;6.01;100.00;99738.06;4955738;28;20490;-88
2023/01/10 00:23:23;;;;;;;17.08;9.25;;;;;;;5.77;100.00;99735.22;4990279;28;20039;-86
2023/01/10 00:25:52;;;;;;;20.45;10.90;;;;;;;5.66;100.00;99728.38;4972301;28;20034;-87
2023/01/10 00:28:19;;;;;;;18.67;8.98;;;;;;;5.63;100.00;99734.72;4990160;28;20038;-85
2023/01/10 00:30:58;;;;;;;20.40;9.68;;;;;;;5.38;100.00;99751.22;4979459;28;20034;-86
2023/01/10 00:33:24;;;;;;;16.23;8.65;;;;;;;5.58;100.00;99737.00;5105268;23;20115;-87
2023/01/10 00:35:49;;;;;;;17.27;9.57;;;;;;;5.44;100.00;99745.38;4961228;28;20035;-85
2023/01/10 00:38:15;;;;;;;14.27;8.13;;;;;;;5.66;100.00;99741.50;4983312;28;20030;-87
2023/01/10 00:40:41;;;;;;;14.68;8.43;;;;;;;5.77;100.00;99745.72;4948372;28;20481;-85
2023/01/10 00:46:08;;;;;;;16.85;9.80;;;;;;;5.44;100.00;99750.63;4989745;28;20035;-89
2023/01/10 00:48:34;;;;;;;17.80;9.93;;;;;;;5.68;100.00;99764.03;4990686;28;20053;-87
2023/01/10 00:54:00;;;;;;;13.65;6.97;;;;;;;5.89;100.00;99761.16;4433114;26;20050;-87
2023/01/10 00:56:29;;;;;;;15.98;8.50;;;;;;;5.99;100.00;99768.94;4992395;28;20042;-86
2023/01/10 00:58:54;;;;;;;14.60;8.23;;;;;;;5.85;100.00;99770.28;4984912;28;20034;-86
2023/01/10 01:01:20;;;;;;;17.58;7.55;;;;;;;5.80;100.00;99771.72;5004290;28;20078;-90
2023/01/10 01:03:47;;;;;;;10.80;6.72;;;;;;;5.62;100.00;99779.56;4989342;28;20046;-91
2023/01/10 01:06:12;;;;;;;10.32;5.65;;;;;;;5.70;100.00;99783.09;5006382;28;20034;-86
2023/01/10 01:08:37;;;;;;;9.25;5.13;;;;;;;5.67;100.00;99788.66;5003326;28;20046;-86
2023/01/10 01:11:03;;;;;;;9.75;4.53;;;;;;;5.70;100.00;99788.34;4987016;28;20054;-88
2023/01/10 01:13:29;;;;;;;9.63;5.15;;;;;;;5.67;100.00;99793.91;4959543;28;20101;-91
2023/01/10 01:15:59;;;;;;;10.05;5.60;;;;;;;5.85;100.00;99795.75;4984311;28;20067;-87
2023/01/10 01:18:26;;;;;;;7.90;5.53;;;;;;;5.96;100.00;99800.81;4983185;28;20110;-87
2023/01/10 01:20:56;;;;;;;9.15;5.25;;;;;;;6.16;100.00;99808.38;4981707;28;20047;-85
2023/01/10 01:23:23;;;;;;;10.38;5.57;;;;;;;6.24;100.00;99812.91;4949969;28;20046;-87
2023/01/10 01:25:53;;;;;;;10.63;5.28;;;;;;;6.27;100.00;99819.66;4983622;28;20062;-88
2023/01/10 01:28:22;;;;;;;7.93;4.63;;;;;;;6.35;100.00;99825.81;4998213;28;20023;-86
2023/01/10 01:30:53;;;;;;;8.27;4.50;;;;;;;6.35;100.00;99841.63;4971090;28;20197;-89
2023/01/10 01:33:19;;;;;;;8.07;5.05;;;;;;;6.38;100.00;99851.84;4984184;28;20066;-88
2023/01/10 01:35:51;;;;;;;11.85;5.70;;;;;;;6.47;100.00;99856.19;4965740;23;20043;-89
2023/01/10 01:38:17;;;;;;;7.57;4.22;;;;;;;6.54;100.00;99851.97;4948701;28;20039;-85
2023/01/10 01:40:43;;;;;;;7.00;4.65;;;;;;;6.32;100.00;99852.44;4954195;29;20030;-88
2023/01/10 01:43:24;;;;;;;7.75;4.70;;;;;;;6.44;100.00;99864.38;4969408;28;20565;-86
2023/01/10 01:45:53;;;;;;;7.60;4.78;;;;;;;6.48;100.00;99863.09;4947964;29;20122;-88
2023/01/10 01:48:38;;;;;;;11.45;4.95;;;;;;;6.58;100.00;99869.13;4962989;28;20071;-88
2023/01/10 01:51:17;;;;;;;9.05;4.90;;;;;;;6.49;100.00;99870.03;4963240;28;20035;-87
2023/01/10 01:53:48;;;;;;;8.95;4.45;;;;;;;6.30;100.00;99872.81;4968341;28;20039;-87
2023/01/10 01:56:36;;;;;;;7.18;4.28;;;;;;;6.28;100.00;99874.78;4965727;28;20065;-89
2023/01/10 01:59:16;;;;;;;8.60;5.03;;;;;;;6.23;100.00;99879.66;4964432;28;20064;-88
2023/01/10 02:01:46;;;;;;;9.93;5.15;;;;;;;6.12;100.00;99878.09;4962646;28;20035;-90
2023/01/10 02:04:32;;;;;;;6.95;4.15;;;;;;;6.10;100.00;99887.06;4964328;28;20039;-90
2023/01/10 02:06:58;;;;;;;8.93;4.75;;;;;;;6.13;100.00;99894.69;4947762;29;20039;-89
2023/01/10 02:09:29;;;;;;;6.97;4.65;;;;;;;6.13;100.00;99894.69;4949773;29;20039;-90
2023/01/10 02:11:55;;;;;;;7.63;3.83;;;;;;;6.14;100.00;99891.06;4949517;28;20125;-90
2023/01/10 02:14:24;;;;;;;6.10;3.72;;;;;;;6.20;100.00;99891.31;4949550;29;20042;-88
2023/01/10 02:17:21;;;;;;;10.45;3.97;;;;;;;6.21;100.00;99892.13;4976870;28;20031;-87
2023/01/10 02:19:53;;;;;;;6.18;3.60;;;;;;;6.25;100.00;99898.75;4972032;28;20035;-89
2023/01/10 02:22:28;;;;;;;7.50;3.55;;;;;;;6.22;100.00;99899.06;4964163;28;20050;-90
2023/01/10 02:25:12;;;;;;;9.35;4.20;;;;;;;6.21;100.00;99894.75;4964037;28;20516;-88
2023/01/10 02:27:59;;;;;;;6.72;3.95;;;;;;;6.28;100.00;99902.88;4965261;28;20031;-89
2023/01/10 02:31:02;;;;;;;6.05;3.05;;;;;;;6.24;100.00;99912.88;4946436;29;20050;-87
2023/01/10 02:34:15;;;;;;;4.97;2.90;;;;;;;6.32;100.00;99912.97;4970971;28;20071;-85
2023/01/10 02:36:52;;;;;;;5.13;2.63;;;;;;;6.34;100.00;99913.63;4899120;29;20049;-89
2023/01/10 02:39:45;;;;;;;7.00;2.10;;;;;;;6.37;100.00;99917.78;4976543;28;20043;-87
2023/01/10 02:42:17;;;;;;;5.20;2.38;;;;;;;6.32;100.00;99912.97;4918795;29;20082;-89
2023/01/10 02:44:47;;;;;;;;;;;;;;;6.37;100.00;99923.88;4967495;28;20055;-88
2023/01/10 02:47:24;;;;;;;4.20;2.17;;;;;;;6.37;100.00;99921.22;4948817;29;19957;-86
2023/01/10 02:49:51;;;;;;;4.43;2.10;;;;;;;6.40;100.00;99923.56;4944865;29;20108;-89
2023/01/10 02:52:25;;;;;;;3.65;2.03;;;;;;;6.36;100.00;99929.28;4963596;29;20046;-89
2023/01/10 02:54:57;;;;;;;3.83;2.13;;;;;;;6.43;100.00;99920.63;4963468;28;20119;-90
2023/01/10 02:57:56;;;;;;;3.40;1.55;;;;;;;6.49;100.00;99925.31;4960490;28;20561;-86
2023/01/10 03:00:25;;;;;;;2.83;1.80;;;;;;;6.46;100.00;99933.50;4961378;28;20058;-87
2023/01/10 03:03:18;;;;;;;3.63;2.10;;;;;;;6.33;100.00;99929.59;4928301;29;20134;-88
2023/01/10 03:05:59;;;;;;;3.65;1.77;;;;;;;6.28;100.00;99932.66;4944087;29;20138;-86
2023/01/10 03:08:55;;;;;;;4.13;1.40;;;;;;;6.25;100.00;99940.84;4945778;28;20042;-88
2023/01/10 03:11:38;;;;;;;2.13;1.40;;;;;;;5.94;100.00;99942.97;4961118;28;20584;-90
2023/01/10 03:14:30;;;;;;;3.60;1.40;;;;;;;5.80;100.00;99961.03;4945809;29;20038;-88
2023/01/10 03:17:05;;;;;;;1.63;1.10;;;;;;;5.74;100.00;99942.22;4962132;28;20054;-88
2023/01/10 03:19:37;;;;;;;3.85;1.27;;;;;;;5.82;100.00;99938.03;4933565;29;20129;-87
2023/01/10 03:22:07;;;;;;;0.85;0.80;;;;;;;5.97;100.00;99952.38;4964572;28;20038;-88
2023/01/10 03:24:40;;;;;;;1.75;1.13;;;;;;;6.13;100.00;99950.75;4961124;28;20044;-91
2023/01/10 03:27:12;;;;;;;0.90;0.80;;;;;;;6.20;100.00;99945.72;4962893;28;20393;-88
2023/01/10 03:30:05;;;;;;;1.73;0.77;;;;;;;6.34;100.00;99960.19;4963294;28;20114;-88
2023/01/10 03:32:31;;;;;;;1.60;0.85;;;;;;;6.44;100.00;99961.78;4971700;28;20031;-86
2023/01/10 03:34:59;;;;;;;1.35;0.90;;;;;;;6.47;100.00;99958.84;4975252;28;20074;-89
2023/01/10 03:37:45;;;;;;;1.20;0.90;;;;;;;6.59;100.00;99959.47;4973835;29;20025;-88
2023/01/10 03:40:27;;;;;;;0.68;0.60;;;;;;;6.64;100.00;99962.44;4957640;29;20043;-88
2023/01/10 03:45:57;;;;;;;0.85;0.80;;;;;;;6.85;94.36;99976.16;4965764;29;20062;-88
2023/01/10 03:48:27;;;;;;;1.00;0.65;;;;;;;7.00;92.44;99973.78;4969020;29;20039;-86
2023/01/10 03:50:55;;;;;;;2.33;0.60;;;;;;;7.11;90.87;99982.28;4976469;28;20043;-84
2023/01/10 03:53:21;;;;;;;0.70;0.70;;;;;;;7.30;89.21;99976.00;4961915;28;20043;-88
2023/01/10 03:55:49;;;;;;;0.85;0.70;;;;;;;7.36;89.59;99979.84;4973068;28;20040;-90
2023/01/10 03:58:20;;;;;;;0.60;0.60;;;;;;;7.46;81.46;99983.16;4946628;29;20402;-90
2023/01/10 04:00:49;;;;;;;0.63;0.60;;;;;;;7.66;78.41;99981.97;4945776;29;20339;-90
2023/01/10 04:03:15;;;;;;;1.95;0.60;;;;;;;7.74;78.16;99995.22;4962840;29;20042;-87
2023/01/10 04:05:41;;;;;;;1.00;0.52;;;;;;;7.82;77.85;99988.16;4946322;29;20043;-90
2023/01/10 04:08:07;;;;;;;2.25;0.70;;;;;;;7.89;76.47;99998.13;4961314;29;20059;-89
2023/01/10 04:10:33;;;;;;;0.77;0.60;;;;;;;7.93;74.90;99999.44;4944389;29;20121;-89
2023/01/10 04:13:00;;;;;;;1.85;0.60;;;;;;;8.03;74.97;100003.59;4926238;29;20078;-86
2023/01/10 04:15:26;;;;;;;5.90;0.57;;;;;;;8.09;74.18;100007.41;4959391;29;20066;-88
2023/01/10 04:17:55;;;;;;;0.85;0.60;;;;;;;8.12;74.83;100010.56;4927060;29;20039;-90
2023/01/10 04:20:23;;;;;;;0.47;0.40;;;;;;;8.13;73.67;100006.94;4941526;29;20051;-88
2023/01/10 04:22:50;;;;;;;0.90;0.65;;;;;;;8.14;74.04;100013.06;4961606;29;20067;-85
2023/01/10 04:25:15;;;;;;;2.30;0.50;;;;;;;8.15;72.89;100020.81;4956499;28;20035;-86
2023/01/10 04:27:41;;;;;;;2.67;0.40;;;;;;;8.17;72.12;100023.28;4960496;29;20556;-87
2023/01/10 04:30:08;;;;;;;1.05;0.77;;;;;;;8.22;71.32;100021.00;4960247;29;20039;-89
2023/01/10 04:32:33;;;;;;;0.60;0.60;;;;;;;8.21;72.02;100032.56;4960525;29;20175;-89
2023/01/10 04:35:01;;;;;;;0.63;0.50;;;;;;;8.15;72.58;100030.56;4967010;29;20035;-85
2023/01/10 04:37:27;;;;;;;1.25;0.50;;;;;;;8.11;72.85;100037.13;4929875;29;20039;-89
2023/01/10 04:39:52;;;;;;;0.50;0.50;;;;;;;8.15;72.23;100041.13;4944654;29;20096;-87
2023/01/10 04:42:22;;;;;;;0.68;0.60;;;;;;;8.15;72.64;100049.03;4963116;29;20066;-88
2023/01/10 04:44:47;;;;;;;0.43;0.43;;;;;;;8.14;72.20;100052.66;4955193;29;20040;-87
2023/01/10 04:47:13;;;;;;;0.60;0.55;;;;;;;8.23;73.28;100060.44;4971371;29;20038;-87
2023/01/10 04:49:39;;;;;;;0.60;0.57;;;;;;;8.13;73.58;100058.91;4948795;29;20040;-87
2023/01/10 04:52:07;;;;;;;0.80;0.68;;;;;;;8.15;72.51;100062.22;4954042;29;20074;-87
2023/01/10 04:54:32;;;;;;;0.82;0.57;;;;;;;8.21;73.26;100062.44;4932639;29;20387;-88
2023/01/10 04:56:58;;;;;;;0.70;0.70;;;;;;;8.18;72.76;100077.75;4945899;29;20050;-87
2023/01/10 04:59:24;;;;;;;0.80;0.60;;;;;;;8.16;72.09;100069.97;4962406;29;20672;-87
2023/01/10 05:01:52;;;;;;;0.40;0.40;;;;;;;8.14;72.49;100087.78;4946911;29;20150;-87
2023/01/10 05:04:18;;;;;;;0.57;0.52;;;;;;;8.18;71.71;100088.31;4963316;29;20618;-87
2023/01/10 05:06:43;;;;;;;0.75;0.70;;;;;;;8.24;70.60;100095.59;4961520;29;20047;-88
2023/01/10 05:09:09;;;;;;;1.48;0.50;;;;;;;8.19;71.26;100090.78;4944807;29;20035;-87
2023/01/10 05:11:35;;;;;;;0.68;0.52;;;;;;;8.26;70.47;100090.97;4962380;29;20062;-88
2023/01/10 05:14:01;;;;;;;1.83;0.70;;;;;;;8.31;70.05;100094.00;4946344;29;20388;-86
2023/01/10 05:16:29;;;;;;;2.30;0.80;;;;;;;8.32;69.73;100094.84;4963666;29;20122;-89
2023/01/10 05:18:57;;;;;;;0.95;0.63;;;;;;;8.36;68.77;100102.28;4947665;29;20122;-88
2023/01/10 05:21:23;;;;;;;0.43;0.43;;;;;;;8.38;68.89;100105.59;4947137;29;20039;-91
2023/01/10 05:23:51;;;;;;;0.88;0.70;;;;;;;8.47;66.94;100107.28;4948854;29;20039;-89
2023/01/10 05:26:35;;;;;;;1.00;0.65;;;;;;;8.57;66.68;100120.38;4967005;29;20039;-89
2023/01/10 05:29:11;;;;;;;1.45;0.70;;;;;;;8.68;65.51;100128.00;4933499;29;20031;-92
2023/01/10 05:31:43;;;;;;;1.25;0.60;;;;;;;8.68;64.52;100133.28;4950867;29;20035;-88
2023/01/10 05:34:32;;;;;;;4.82;0.50;;;;;;;8.61;65.47;100130.47;4970478;29;20039;-87
2023/01/10 05:36:58;;;;;;;0.70;0.60;;;;;;;8.70;63.97;100132.13;4949746;29;20125;-88
2023/01/10 05:39:24;;;;;;;0.50;0.50;;;;;;;8.74;64.53;100144.06;4977810;28;20059;-88
2023/01/10 05:41:55;;;;;;;1.00;0.57;;;;;;;8.72;64.37;100147.81;4963946;28;20095;-88
2023/01/10 05:44:30;;;;;;;0.73;0.60;;;;;;;8.72;64.40;100140.72;4981011;28;20095;-88
2023/01/10 05:46:58;;;;;;;1.33;0.70;;;;;;;8.72;63.35;100155.75;4980686;28;20119;-90
2023/01/10 05:49:27;;;;;;;0.70;0.52;;;;;;;8.70;63.70;100169.13;4965380;28;20114;-87
2023/01/10 05:51:54;;;;;;;0.93;0.60;;;;;;;8.72;62.74;100159.22;4945358;29;20111;-89
2023/01/10 05:54:23;;;;;;;0.45;0.45;;;;;;;8.73;63.77;100173.25;4931216;28;20498;-92
2023/01/10 05:56:50;;;;;;;0.98;0.60;;;;;;;8.72;64.16;100172.44;4949385;28;20023;-87
2023/01/10 05:59:16;;;;;;;3.67;0.45;;;;;;;8.76;63.42;100171.13;4961118;28;20079;-89
2023/01/10 06:01:42;;;;;;;0.57;0.57;;;;;;;8.73;63.32;100182.03;4965571;28;20042;-90
2023/01/10 06:04:07;;;;;;;0.70;0.60;;;;;;;8.72;62.78;100190.91;4960932;28;20027;-90
2023/01/10 06:06:36;;;;;;;0.70;0.57;;;;;;;8.68;63.39;100196.69;4962046;28;20360;-88
2023/01/10 06:09:05;;;;;;;0.80;0.70;;;;;;;8.61;65.02;100193.03;4955929;29;20057;-91
2023/01/10 06:11:36;;;;;;;1.98;0.55;;;;;;;8.64;63.36;100204.09;4946776;29;20043;-90
2023/01/10 06:14:01;;;;;;;0.90;0.60;;;;;;;8.67;63.74;100200.31;4950182;29;20044;-86
2023/01/10 06:16:36;;;;;;;6.00;0.80;;;;;;;8.72;63.39;100214.69;4971342;28;20058;-90
2023/01/10 06:19:02;;;;;;;2.83;0.70;;;;;;;8.69;63.37;100216.81;4979423;28;20034;-89
2023/01/10 06:21:28;;;;;;;1.08;0.60;;;;;;;8.67;63.77;100227.56;4943409;29;20039;-86
2023/01/10 06:24:03;;;;;;;0.85;0.70;;;;;;;8.66;63.42;100233.81;4968134;28;20023;-91
2023/01/10 06:26:28;;;;;;;2.92;0.60;;;;;;;8.63;63.43;100234.16;4934304;28;20775;-89
2023/01/10 06:28:57;;;;;;;2.85;0.75;;;;;;;8.62;63.06;100240.41;4928988;28;20094;-90
2023/01/10 06:31:22;;;;;;;0.70;0.60;;;;;;;8.65;62.31;100252.50;4945911;28;20496;-92
2023/01/10 06:33:52;;;;;;;1.85;0.70;;;;;;;8.66;62.00;100256.78;4948781;29;20103;-91
2023/01/10 06:36:21;;;;;;;0.73;0.73;;;;;;;8.64;63.27;100259.59;4948659;29;20023;-90
2023/01/10 06:39:10;;;;;;;1.50;0.93;;;;;;;8.68;62.18;100275.94;4959641;28;20072;-91
2023/01/10 06:41:39;;;;;;;1.48;1.08;;;;;;;8.65;62.17;100282.34;4933641;29;20039;-89
2023/01/10 06:44:06;;;;;;;1.05;0.80;;;;;;;8.67;61.62;100290.97;4948447;29;20080;-88
2023/01/10 06:46:33;;;;;;;5.25;0.90;;;;;;;8.66;62.19;100278.75;4946656;29;20063;-89
2023/01/10 06:48:58;;;;;;;1.60;0.75;;;;;;;8.69;63.92;100289.00;4943069;29;20457;-86
2023/01/10 06:51:30;;;;;;;0.90;0.70;;;;;;;8.69;62.12;100289.00;4944407;28;20035;-90
2023/01/10 06:53:56;;;;;;;2.58;0.82;;;;;;;8.62;62.12;100305.59;4958390;28;20027;-91
2023/01/10 06:56:21;;;;;;;1.33;0.80;;;;;;;8.59;63.17;100319.97;4946252;29;20039;-89
2023/01/10 06:58:50;;;;;;;2.35;1.05;;;;;;;8.63;61.56;100316.03;4963324;28;20455;-90
2023/01/10 07:01:28;;;;;;;2.05;0.60;;;;;;;8.68;62.29;100316.38;4948752;28;20114;-90
2023/01/10 07:03:57;;;;;;;0.80;0.57;;;;;;;8.86;62.23;100316.34;4933444;29;20066;-89
2023/01/10 07:06:26;;;;;;;1.27;0.70;;;;;;;9.17;62.11;100335.19;4946153;29;20074;-89
2023/01/10 07:12:11;;;;;;;1.10;0.60;;;;;;;9.45;59.98;100354.31;4943187;29;20510;-89
2023/01/10 07:14:50;;;;;;;0.60;0.50;;;;;;;9.59;59.43;100367.78;4929590;29;20058;-85
2023/01/10 07:17:16;;;;;;;2.75;0.80;;;;;;;9.85;58.50;100350.00;4939963;29;20048;-87
2023/01/10 07:19:41;;;;;;;2.60;0.70;;;;;;;10.20;55.60;100366.66;4922601;29;20423;-88
2023/01/10 07:22:09;;;;;;;3.25;0.80;;;;;;;10.13;53.99;100373.56;4929173;28;20106;-88
2023/01/10 07:24:38;;;;;;;1.17;0.77;;;;;;;10.38;54.12;100383.22;4944092;29;20038;-88
2023/01/10 07:27:04;;;;;;;1.95;0.50;;;;;;;10.55;50.28;100382.25;4961624;28;20050;-90
2023/01/10 07:29:32;;;;;;;1.77;0.65;;;;;;;10.57;48.08;100388.19;4944894;29;20494;-89
2023/01/10 07:32:00;;;;;;;2.78;0.60;;;;;;;10.80;47.26;100402.44;4946558;28;20039;-87
2023/01/10 07:34:26;;;;;;;1.73;0.60;;;;;;;10.72;45.55;100410.41;4960788;28;20026;-88
2023/01/10 07:36:51;;;;;;;3.88;1.50;;;;;;;10.62;44.86;100404.44;4962729;28;20035;-87
2023/01/10 07:39:20;;;;;;;8.63;2.22;;;;;;;10.79;43.44;100413.22;4943460;29;20035;-89
2023/01/10 07:41:49;;;;;;;3.40;1.27;;;;;;;11.26;43.28;100413.34;4962533;28;20039;-90
2023/01/10 07:44:15;;;;;;;5.60;0.90;;;;;;;11.10;42.58;100429.28;4960276;28;20090;-86
2023/01/10 07:46:44;;;;;;;2.25;0.70;;;;;;;11.31;42.00;100416.31;4944466;29;20055;-91
2023/01/10 07:49:13;;;;;;;1.00;0.80;;;;;;;11.62;41.33;100425.19;4946142;29;20039;-90
2023/01/10 07:51:39;;;;;;;2.15;0.70;;;;;;;11.52;40.06;100432.53;4963242;28;20035;-90
2023/01/10 07:54:13;;;;;;;3.45;0.60;;;;;;;11.84;40.78;100427.13;4947231;29;20039;-90
2023/01/10 07:56:39;;;;;;;2.20;0.70;;;;;;;12.21;38.34;100441.56;4945419;28;20035;-90
2023/01/10 07:59:04;;;;;;;2.97;0.70;;;;;;;12.22;37.75;100445.88;4941460;29;20186;-87
2023/01/10 08:01:30;;;;;;;4.63;0.60;;;;;;;12.16;37.84;100452.72;4959352;28;20102;-85
2023/01/10 08:03:57;;;;;;;0.80;0.60;;;;;;;12.06;36.61;100448.63;4940429;29;20091;-88
2023/01/10 08:06:23;;;;;;;1.00;0.50;;;;;;;11.72;37.84;100465.69;4941127;29;20035;-88
2023/01/10 08:08:49;;;;;;;1.30;0.52;;;;;;;11.43;37.88;100462.72;4958514;28;20372;-90
2023/01/10 08:11:14;;;;;;;1.35;0.70;;;;;;;10.95;38.75;100473.38;4958649;29;20115;-92
2023/01/10 08:13:40;;;;;;;2.47;0.80;;;;;;;10.76;39.07;100446.22;4941815;28;20054;-90
2023/01/10 08:16:07;;;;;;;0.57;0.52;;;;;;;10.67;40.59;100473.69;4943101;29;20126;-88
2023/01/10 08:18:33;;;;;;;1.83;0.68;;;;;;;10.48;40.13;100476.63;4940246;28;20118;-90
2023/01/10 08:20:59;;;;;;;1.17;0.68;;;;;;;10.29;40.33;100479.56;4941290;29;20027;-88
2023/01/10 08:23:25;;;;;;;2.58;1.23;;;;;;;10.23;40.92;100485.50;4947717;29;20103;-86
2023/01/10 08:25:51;;;;;;;1.30;0.70;;;;;;;10.16;41.30;100492.44;4963596;28;20035;-88
2023/01/10 08:28:19;;;;;;;1.80;0.75;;;;;;;10.26;40.48;100501.09;4962508;28;20051;-86
2023/01/10 08:30:45;;;;;;;1.52;0.95;;;;;;;10.19;40.53;100502.72;4947317;29;20046;-86
2023/01/10 08:33:11;;;;;;;0.73;0.60;;;;;;;10.19;40.83;100497.41;4963725;28;20043;-89
2023/01/10 08:35:41;;;;;;;2.38;0.75;;;;;;;10.29;40.40;100527.25;4963080;28;20090;-90
2023/01/10 08:38:07;;;;;;;1.70;0.63;;;;;;;10.29;40.11;100514.00;4937688;28;20478;-88
2023/01/10 08:40:33;;;;;;;0.80;0.65;;;;;;;10.30;39.87;100513.03;4969534;29;20470;-89
2023/01/10 08:43:01;;;;;;;0.98;0.70;;;;;;;10.40;39.94;100521.66;4946453;29;20118;-89
2023/01/10 08:51:37;;;;;;;4.75;0.70;;;;;;;10.64;39.58;100545.56;5364546;23;20082;-86
2023/01/10 08:54:03;;;;;;;0.77;0.65;;;;;;;10.50;39.50;100554.16;4949436;29;20035;-84
2023/01/10 08:56:29;;;;;;;3.30;0.70;;;;;;;10.40;40.32;100552.63;4959429;28;20486;-87
2023/01/10 08:58:55;;;;;;;0.70;0.70;;;;;;;10.38;39.26;100558.06;4942247;29;20035;-86
2023/01/10 09:01:20;;;;;;;1.08;0.60;;;;;;;10.46;40.43;100557.28;4959864;29;20023;-86
2023/01/10 09:03:46;;;;;;;1.67;0.60;;;;;;;10.53;39.80;100575.03;4942304;29;20074;-86
2023/01/10 09:06:14;;;;;;;0.80;0.63;;;;;;;10.48;40.40;100572.03;4959569;28;20043;-85
2023/01/10 09:08:40;;;;;;;0.57;0.52;;;;;;;10.52;39.93;100568.06;4943016;29;20042;-86
2023/01/10 09:11:06;;;;;;;1.48;0.63;;;;;;;10.48;39.73;100572.03;4959682;29;20036;-86
2023/01/10 09:13:31;;;;;;;0.90;0.55;;;;;;;10.55;40.20;100583.63;4943233;29;20453;-87
2023/01/10 09:15:57;;;;;;;10.52;3.45;;;;;;;10.75;39.50;100590.34;4963304;28;20430;-86
2023/01/10 09:18:23;;;;;;;3.72;1.02;;;;;;;10.57;39.84;100594.91;4955844;29;20031;-85
2023/01/10 09:20:52;;;;;;;1.08;0.60;;;;;;;10.54;39.69;100587.28;4954756;29;20047;-85
2023/01/10 09:23:21;;;;;;;2.78;0.77;;;;;;;10.56;39.50;100595.91;4946404;29;20394;-85
2023/01/10 09:25:48;;;;;;;4.05;0.80;;;;;;;10.61;39.29;100603.38;4960156;29;20038;-87
2023/01/10 09:28:14;;;;;;;0.60;0.47;;;;;;;10.59;40.02;100600.88;4942277;29;20398;-86
2023/01/10 09:30:40;;;;;;;0.90;0.57;;;;;;;10.66;39.71;100617.81;4941566;29;20401;-87
2023/01/10 09:33:06;;;;;;;2.47;0.80;;;;;;;10.66;39.57;100622.28;4942071;29;20781;-86
2023/01/10 09:35:35;;;;;;;0.90;0.60;;;;;;;10.80;39.45;100633.09;4944526;29;20035;-87
2023/01/10 09:38:01;;;;;;;0.70;0.60;;;;;;;10.84;39.45;100636.25;4958498;28;20035;-87
2023/01/10 09:40:52;;;;;;;0.70;0.70;;;;;;;10.77;38.49;100629.94;4958741;28;20034;-86
2023/01/10 09:43:36;;;;;;;1.17;0.63;;;;;;;10.77;39.03;100625.44;4928864;29;20039;-84
2023/01/10 09:46:24;;;;;;;0.40;0.40;;;;;;;10.77;38.66;100641.38;4961435;28;20090;-88
2023/01/10 09:48:53;;;;;;;1.02;0.70;;;;;;;10.80;38.65;100637.59;4945900;28;20038;-87
2023/01/10 09:51:33;;;;;;;5.85;0.98;;;;;;;10.84;38.59;100655.63;4958091;28;20043;-86
2023/01/10 09:54:02;;;;;;;0.60;0.50;;;;;;;10.88;38.19;100653.50;4964511;28;20063;-84
2023/01/10 09:56:30;;;;;;;0.77;0.52;;;;;;;10.89;38.49;100650.69;4964830;29;20094;-85
2023/01/10 09:58:57;;;;;;;3.25;0.70;;;;;;;10.94;38.56;100654.69;4940624;29;20043;-85
2023/01/10 10:01:31;;;;;;;2.20;0.60;;;;;;;11.02;38.06;100676.75;4940494;29;20046;-85
2023/01/10 10:04:14;;;;;;;2.97;0.80;;;;;;;11.02;37.93;100674.09;4980893;29;20039;-84
2023/01/10 10:06:40;;;;;;;0.80;0.60;;;;;;;11.05;37.70;100707.41;4979356;28;20087;-84
2023/01/10 10:09:12;;;;;;;2.47;0.88;;;;;;;11.08;37.85;100691.19;4958980;29;20082;-88
2023/01/10 10:11:53;;;;;;;0.88;0.50;;;;;;;11.14;37.48;100707.28;4925020;28;20039;-85
2023/01/10 10:14:48;;;;;;;3.60;0.52;;;;;;;11.22;37.39;100694.06;4979634;28;20039;-84
2023/01/10 10:17:33;;;;;;;2.30;0.70;;;;;;;11.19;37.84;100680.28;4922438;28;20117;-87
2023/01/10 10:20:04;;;;;;;8.98;1.20;;;;;;;11.33;37.55;100675.16;4957691;28;20047;-87
2023/01/10 10:22:54;;;;;;;2.28;0.60;;;;;;;11.37;37.23;100678.31;4965855;28;20020;-84
2023/01/10 10:26:05;;;;;;;0.80;0.52;;;;;;;11.30;38.25;100672.03;4963655;28;20058;-84
2023/01/10 10:28:49;;;;;;;0.52;0.50;;;;;;;11.39;36.97;100668.38;4963342;28;20119;-86
2023/01/10 10:31:26;;;;;;;2.10;0.80;;;;;;;11.38;36.63;100667.56;4959378;29;20382;-85
2023/01/10 10:34:04;;;;;;;0.70;0.60;;;;;;;11.48;36.82;100661.25;4960658;28;20110;-85
2023/01/10 10:36:39;;;;;;;1.73;0.60;;;;;;;11.41;37.01;100677.00;4965933;28;20090;-85
2023/01/10 10:39:11;;;;;;;4.18;0.70;;;;;;;11.41;35.81;100682.31;4968411;28;20027;-87
2023/01/10 10:41:42;;;;;;;3.45;0.85;;;;;;;11.44;36.87;100684.63;4971930;28;20058;-89
2023/01/10 10:44:22;;;;;;;1.83;0.70;;;;;;;11.50;36.20;100681.31;4970248;28;20020;-88
2023/01/10 10:46:51;;;;;;;4.32;1.50;;;;;;;11.53;36.52;100680.19;4967317;29;20075;-88
2023/01/10 10:49:29;;;;;;;2.42;1.00;;;;;;;11.57;37.33;100673.53;4947463;29;20094;-84
2023/01/10 10:51:55;;;;;;;2.33;1.40;;;;;;;11.56;36.31;100667.41;4956033;28;20461;-83
2023/01/10 10:54:21;;;;;;;3.03;1.38;;;;;;;11.52;36.76;100663.44;4955176;28;20046;-85
2023/01/10 10:56:47;;;;;;;3.35;1.40;;;;;;;11.55;35.34;100688.81;4939036;29;20066;-83
2023/01/10 10:59:18;;;;;;;3.88;1.27;;;;;;;11.65;35.66;100687.66;4968217;29;20039;-83
2023/01/10 11:01:50;;;;;;;1.45;0.60;;;;;;;11.67;36.08;100695.44;4967059;28;20035;-84
2023/01/10 11:04:19;;;;;;;6.78;0.98;;;;;;;11.63;36.13;100700.28;4956686;28;20447;-85
2023/01/10 11:06:48;;;;;;;3.92;0.68;;;;;;;11.73;36.63;100703.59;4959785;28;20039;-81
2023/01/10 11:09:18;;;;;;;0.80;0.60;;;;;;;11.70;36.92;100709.25;4975194;28;20064;-84
2023/01/10 11:11:49;;;;;;;1.70;0.85;;;;;;;11.79;37.12;100708.28;4957368;29;20043;-81
2023/01/10 11:14:14;;;;;;;4.85;1.20;;;;;;;11.75;36.49;100700.81;4974628;29;20062;-81
2023/01/10 11:16:46;;;;;;;3.88;1.15;;;;;;;11.77;35.98;100709.41;4957961;29;20095;-86
2023/01/10 11:19:19;;;;;;;2.25;1.15;;;;;;;11.78;36.04;100706.63;4961892;28;20049;-85
2023/01/10 11:21:58;;;;;;;5.22;1.38;;;;;;;11.77;36.00;100710.25;4955827;29;20042;-86
2023/01/10 11:24:31;;;;;;;1.92;1.08;;;;;;;11.83;35.84;100712.25;4968597;28;20055;-83
2023/01/10 11:27:01;;;;;;;4.68;1.77;;;;;;;11.85;35.62;100712.09;4976470;28;20323;-82
2023/01/10 11:29:41;;;;;;;2.72;1.10;;;;;;;11.90;36.26;100713.25;4963930;28;20535;-85
2023/01/10 11:32:13;;;;;;;3.63;0.80;;;;;;;12.00;36.59;100714.94;4955705;28;20343;-85
2023/01/10 11:34:41;;;;;;;0.95;0.65;;;;;;;11.99;35.40;100713.25;4948232;28;20043;-86
2023/01/10 11:37:20;;;;;;;0.90;0.70;;;;;;;12.03;35.44;100719.91;4974971;29;20026;-82
2023/01/10 11:39:46;;;;;;;0.85;0.50;;;;;;;12.19;35.11;100709.28;4965554;28;20405;-88
2023/01/10 11:42:28;;;;;;;2.95;0.68;;;;;;;12.11;35.20;100711.91;4955656;28;20035;-87
2023/01/10 11:44:54;;;;;;;;;;;;;;;12.08;35.30;100704.28;4956333;28;20045;-85
2023/01/10 11:47:20;;;;;;;1.90;0.68;;;;;;;12.11;34.74;100706.59;4938607;28;19919;-82
2023/01/10 11:49:48;;;;;;;0.55;0.50;;;;;;;12.12;34.78;100708.28;4946863;28;20067;-82
2023/01/10 11:52:28;;;;;;;0.95;0.50;;;;;;;12.11;34.71;100722.53;4957088;29;20406;-82
2023/01/10 11:54:59;;;;;;;0.98;0.70;;;;;;;12.15;35.48;100713.25;4979148;29;20019;-84
2023/01/10 11:57:30;;;;;;;1.25;0.80;;;;;;;12.22;35.71;100708.94;4972791;28;20035;-82
2023/01/10 11:59:59;;;;;;;4.22;0.77;;;;;;;12.19;35.29;100709.28;4958146;28;20114;-83
2023/01/10 12:02:34;;;;;;;2.88;0.80;;;;;;;12.19;35.22;100715.41;4978017;28;20082;-83
2023/01/10 12:05:05;;;;;;;1.20;0.60;;;;;;;12.22;35.56;100714.25;4969920;28;20035;-83